Time;durP1;ratioP1;P1;durP2;ratioP2;P2;SDS_P1;SDS_P2;PMS_P1;PMS_P2;Temp;Humidity;BMP_temperature;BMP_pressure;BME280_temperature;BME280_humidity;BME280_pressure;Samples;Min_cycle;Max_cycle;Signal;HPM_P1;HPM_P2
2022/06/11 05:16:28;;;;;;;;;12.50;12.50;;;;;18.96;65.69;102149.25;2689387;23;45023;-77
2022/06/11 05:17:38;;;;;;;;;11.00;11.00;;;;;19.01;65.59;102155.25;2392200;28;46114;-78
2022/06/11 05:18:49;;;;;;;;;10.75;10.25;;;;;19.00;66.14;102156.16;2392593;28;44680;-77
2022/06/11 05:20:00;;;;;;;;;8.75;8.25;;;;;19.02;66.08;102154.28;2390384;28;45420;-78
2022/06/11 05:21:10;;;;;;;;;9.75;8.00;;;;;19.02;65.62;102148.97;2393232;28;45399;-78
2022/06/11 05:22:20;;;;;;;;;8.75;7.25;;;;;19.04;65.77;102152.41;2393570;28;45442;-77
2022/06/11 05:23:31;;;;;;;;;10.50;9.00;;;;;19.04;65.40;102151.56;2393756;28;45150;-78
2022/06/11 05:24:41;;;;;;;;;9.75;7.25;;;;;19.08;65.44;102150.47;2391398;28;47787;-77
2022/06/11 05:25:52;;;;;;;;;7.00;7.00;;;;;19.09;65.50;102153.06;2387868;28;45179;-77
2022/06/11 05:27:08;;;;;;;;;10.25;8.00;;;;;19.11;65.41;102147.69;2393024;28;46338;-77
2022/06/11 05:28:24;;;;;;;;;10.50;8.75;;;;;19.15;65.90;102153.72;2393701;28;45351;-77
2022/06/11 05:29:52;;;;;;;;;10.50;9.00;;;;;19.19;65.73;102153.53;2393289;28;45237;-77
2022/06/11 05:31:02;;;;;;;;;10.00;8.25;;;;;19.23;65.37;102154.25;2392089;28;45459;-77
2022/06/11 05:32:15;;;;;;;;;10.75;9.00;;;;;19.25;65.74;102147.06;2402006;28;45534;-76
2022/06/11 05:33:25;;;;;;;;;7.75;7.25;;;;;19.28;65.43;102146.91;2394143;28;45213;-75
2022/06/11 05:34:36;;;;;;;;;7.75;7.00;;;;;19.31;65.46;102144.06;2393129;28;46711;-75
2022/06/11 05:35:47;;;;;;;;;9.00;8.25;;;;;19.35;65.51;102144.81;2393587;28;45338;-75
2022/06/11 05:36:58;;;;;;;;;8.00;8.00;;;;;19.39;65.35;102145.50;2402108;28;47467;-75
2022/06/11 05:38:14;;;;;;;;;9.00;7.50;;;;;19.42;65.52;102140.03;2391619;28;45590;-75
2022/06/11 05:39:25;;;;;;;;;7.25;7.25;;;;;19.45;65.58;102147.91;2395957;28;48026;-74
2022/06/11 05:40:39;;;;;;;;;8.75;8.75;;;;;19.48;65.17;102145.09;2399925;28;45361;-75
2022/06/11 05:41:49;;;;;;;;;8.25;7.25;;;;;19.52;65.31;102149.31;2392381;28;48010;-75
2022/06/11 05:43:00;;;;;;;;;9.75;8.75;;;;;19.54;65.13;102150.09;2393039;28;44779;-75
2022/06/11 05:44:10;;;;;;;;;11.00;9.75;;;;;19.59;65.10;102146.34;2393258;28;46217;-75
2022/06/11 05:45:50;;;;;;;;;10.00;7.25;;;;;19.62;65.32;102151.53;2391927;28;45453;-75
2022/06/11 05:47:01;;;;;;;;;11.25;8.25;;;;;19.64;64.80;102153.19;2382667;28;45898;-75
2022/06/11 05:48:14;;;;;;;;;7.75;7.50;;;;;19.66;64.71;102156.63;2393504;28;45233;-75
2022/06/11 05:49:29;;;;;;;;;10.25;9.00;;;;;19.65;65.03;102149.59;2400844;28;45332;-75
2022/06/11 05:50:45;;;;;;;;;7.25;7.00;;;;;19.66;64.79;102153.09;2395888;28;45294;-75
2022/06/11 05:52:01;;;;;;;;;9.00;9.00;;;;;19.67;64.82;102146.84;2393145;28;46243;-75
2022/06/11 05:53:14;;;;;;;;;9.25;9.25;;;;;19.70;64.91;102152.03;2399199;28;45272;-75
2022/06/11 05:54:30;;;;;;;;;8.25;8.00;;;;;19.72;65.10;102158.16;2400249;28;45316;-75
2022/06/11 05:55:42;;;;;;;;;7.75;7.00;;;;;19.74;64.98;102156.25;2402260;28;45280;-75
2022/06/11 05:56:54;;;;;;;;;8.50;8.50;;;;;19.78;65.02;102151.63;2399266;28;47523;-76
2022/06/11 05:58:09;;;;;;;;;9.00;8.00;;;;;19.81;64.40;102150.59;2393493;28;45194;-75
2022/06/11 05:59:29;;;;;;;;;7.00;6.75;;;;;19.83;64.68;102149.59;2402006;28;47243;-74
2022/06/11 06:00:40;;;;;;;;;7.75;7.75;;;;;19.88;65.13;102152.03;2398434;28;45238;-75
2022/06/11 06:01:51;;;;;;;;;8.50;8.50;;;;;19.91;64.56;102159.88;2393118;28;45395;-75
2022/06/11 06:03:02;;;;;;;;;7.25;7.25;;;;;19.93;64.51;102147.31;2392562;28;45448;-75
2022/06/11 06:04:12;;;;;;;;;9.25;7.25;;;;;19.96;64.41;102148.97;2409119;28;47582;-75
2022/06/11 06:05:26;;;;;;;;;12.50;11.00;;;;;19.99;64.52;102151.50;2392494;28;45441;-75
2022/06/11 06:06:37;;;;;;;;;11.00;9.00;;;;;19.99;64.08;102155.03;2392757;28;45391;-75
2022/06/11 06:07:47;;;;;;;;;11.25;10.00;;;;;20.02;63.77;102154.88;2393173;28;45221;-75
2022/06/11 06:08:58;;;;;;;;;9.25;9.00;;;;;20.06;64.23;102154.69;2393201;28;46711;-75
2022/06/11 06:10:08;;;;;;;;;10.00;8.00;;;;;20.08;64.41;102151.00;2393496;28;45305;-75
2022/06/11 06:11:19;;;;;;;;;10.25;10.25;;;;;20.11;64.24;102158.03;2392917;28;45387;-75
2022/06/11 06:12:33;;;;;;;;;7.50;7.50;;;;;20.16;63.97;102149.78;2393023;28;44675;-75
2022/06/11 06:13:47;;;;;;;;;11.25;10.25;;;;;20.19;63.87;102155.84;2387607;28;45212;-75
2022/06/11 06:15:02;;;;;;;;;9.00;8.50;;;;;20.23;63.85;102156.53;2393323;28;45261;-75
2022/06/11 06:16:18;;;;;;;;;7.50;7.50;;;;;20.26;63.65;102155.50;2393043;28;45558;-75
2022/06/11 06:17:29;;;;;;;;;11.50;10.25;;;;;20.28;63.91;102153.63;2392972;28;44683;-75
2022/06/11 06:18:39;;;;;;;;;9.50;9.25;;;;;20.30;63.49;102162.41;2401919;28;46922;-75
2022/06/11 06:19:50;;;;;;;;;8.00;7.75;;;;;20.32;63.76;102155.22;2399373;28;44708;-75
2022/06/11 06:21:00;;;;;;;;;11.25;9.25;;;;;20.34;63.91;102159.53;2392836;28;45443;-75
2022/06/11 06:22:10;;;;;;;;;8.50;8.50;;;;;20.36;63.80;102151.44;2392272;28;45298;-75
2022/06/11 06:23:21;;;;;;;;;10.75;10.25;;;;;20.39;63.57;102151.28;2392781;28;46596;-75
2022/06/11 06:24:33;;;;;;;;;12.25;10.00;;;;;20.43;63.65;102163.50;2392703;28;45438;-75
2022/06/11 06:25:43;;;;;;;;;5.50;5.50;;;;;20.48;63.78;102160.59;2393000;28;45225;-75
2022/06/11 06:26:53;;;;;;;;;10.00;8.75;;;;;20.51;63.50;102159.56;2393243;28;45240;-75
2022/06/11 06:28:05;;;;;;;;;9.75;9.75;;;;;20.55;63.44;102162.00;2392373;28;46185;-75
2022/06/11 06:29:15;;;;;;;;;11.00;9.50;;;;;20.58;63.41;102155.63;2401883;28;45264;-75
2022/06/11 06:30:26;;;;;;;;;10.25;10.25;;;;;20.60;63.35;102159.06;2398741;28;45435;-75
2022/06/11 06:31:37;;;;;;;;;12.25;9.00;;;;;20.60;63.33;102163.53;2399987;28;45423;-75
2022/06/11 06:32:47;;;;;;;;;12.75;10.75;;;;;20.60;63.11;102163.53;2399286;28;45383;-75
2022/06/11 06:34:00;;;;;;;;;9.75;9.75;;;;;20.61;63.12;102160.81;2393191;28;45246;-75
2022/06/11 06:35:11;;;;;;;;;14.50;12.75;;;;;20.61;63.07;102160.81;2393053;28;45580;-75
2022/06/11 06:36:21;;;;;;;;;9.25;9.25;;;;;20.60;63.42;102158.22;2393003;28;45179;-75
2022/06/11 06:37:33;;;;;;;;;10.00;9.00;;;;;20.63;63.24;102163.41;2390236;28;45374;-75
2022/06/11 06:38:44;;;;;;;;;8.75;8.75;;;;;20.65;63.29;102158.81;2392954;28;45226;-75
2022/06/11 06:39:55;;;;;;;;;10.00;9.00;;;;;20.68;63.24;102156.00;2392991;28;46509;-75
2022/06/11 06:41:06;;;;;;;;;7.25;7.25;;;;;20.69;63.32;102158.56;2389753;28;45217;-75
2022/06/11 06:42:17;;;;;;;;;10.50;9.25;;;;;20.74;62.74;102160.16;2384560;28;47288;-75
2022/06/11 06:43:27;;;;;;;;;12.00;11.25;;;;;20.75;62.90;102162.72;2392494;28;45512;-75
2022/06/11 06:44:38;;;;;;;;;12.50;10.75;;;;;20.76;62.98;102155.59;2401538;28;47388;-75
2022/06/11 06:45:49;;;;;;;;;13.75;12.00;;;;;20.78;62.50;102161.72;2392354;28;45374;-75
2022/06/11 06:46:59;;;;;;;;;10.50;10.00;;;;;20.79;62.75;102158.09;2392253;28;47538;-75
2022/06/11 06:48:10;;;;;;;;;7.75;7.75;;;;;20.79;62.89;102160.78;2399594;28;45368;-75
2022/06/11 06:49:20;;;;;;;;;11.25;9.50;;;;;;;;2392440;28;46954;-75
2022/06/11 06:50:30;;;;;;;;;15.75;12.25;;;;;20.79;62.53;102160.78;2396556;28;45301;-75
2022/06/11 06:51:40;;;;;;;;;12.75;12.00;;;;;20.78;62.58;102161.72;2401023;28;46726;-75
2022/06/11 06:52:51;;;;;;;;;11.00;11.00;;;;;20.77;62.74;102160.84;2394449;28;45205;-75
2022/06/11 06:54:02;;;;;;;;;11.50;9.75;;;;;20.80;62.89;102165.16;2393913;28;45466;-75
2022/06/11 06:55:13;;;;;;;;;9.75;9.75;;;;;20.83;62.54;102165.00;2394833;28;44639;-75
2022/06/11 06:56:29;;;;;;;;;14.75;11.75;;;;;20.86;62.83;102163.97;2393796;28;47316;-76
2022/06/11 06:57:39;;;;;;;;;11.50;11.00;;;;;20.88;62.59;102162.94;2393994;28;45328;-76
2022/06/11 06:58:51;;;;;;;;;12.25;10.50;;;;;20.91;62.74;102165.41;2394489;28;45976;-76
2022/06/11 07:00:04;;;;;;;;;12.75;11.00;;;;;20.96;62.74;102167.88;2402910;28;45167;-75
2022/06/11 07:01:14;;;;;;;;;9.00;9.00;;;;;20.97;62.52;102163.38;2405434;28;46334;-75
2022/06/11 07:02:25;;;;;;;;;11.00;10.75;;;;;20.99;62.73;102164.16;2402953;28;45238;-75
2022/06/11 07:03:35;;;;;;;;;10.00;10.00;;;;;21.02;62.68;102162.22;2403024;28;46097;-75
2022/06/11 07:04:45;;;;;;;;;10.00;10.00;;;;;21.05;62.74;102163.84;2394282;28;45230;-75
2022/06/11 07:05:56;;;;;;;;;11.25;11.00;;;;;21.08;62.23;102163.69;2393929;28;46240;-75
2022/06/11 07:07:06;;;;;;;;;11.25;10.00;;;;;21.11;62.55;102166.16;2394237;28;44772;-75
2022/06/11 07:08:18;;;;;;;;;11.50;10.25;;;;;21.14;62.83;102163.34;2394531;28;46653;-75
2022/06/11 07:09:28;;;;;;;;;13.50;10.75;;;;;21.16;62.47;102170.41;2397338;28;45530;-75
2022/06/11 07:10:39;;;;;;;;;10.00;9.25;;;;;21.20;62.28;102161.28;2401667;28;45991;-75
2022/06/11 07:11:49;;;;;;;;;16.00;13.75;;;;;21.22;62.00;102167.38;2394269;28;44715;-75
2022/06/11 07:13:00;;;;;;;;;13.00;12.00;;;;;21.24;62.25;102165.47;2394131;28;45267;-75
2022/06/11 07:14:11;;;;;;;;;15.50;15.00;;;;;21.23;62.03;102166.44;2394254;28;44622;-76
2022/06/11 07:15:21;;;;;;;;;11.75;11.75;;;;;21.24;61.77;102165.47;2394535;28;46413;-75
2022/06/11 07:16:37;;;;;;;;;15.75;10.00;;;;;21.25;61.62;102169.91;2394356;28;44780;-75
2022/06/11 07:18:10;;;;;;;;;10.50;10.25;;;;;21.27;61.69;102161.78;2402614;28;48848;-76
2022/06/11 07:19:28;;;;;;;;;12.75;12.75;;;;;21.25;61.38;102165.41;2393741;28;44656;-75
2022/06/11 07:20:40;;;;;;;;;14.25;12.75;;;;;21.26;61.62;102171.59;2393756;28;45451;-75
2022/06/11 07:21:56;;;;;;;;;13.50;12.75;;;;;21.26;61.77;102168.94;2394618;28;45226;-75
2022/06/11 07:23:23;;;;;;;;;13.25;12.00;;;;;21.29;61.58;102162.53;2393661;28;47104;-75
2022/06/11 07:24:37;;;;;;;;;11.00;11.00;;;;;21.30;61.66;102166.97;2388998;28;45180;-75
2022/06/11 07:25:52;;;;;;;;;8.00;8.00;;;;;21.30;61.26;102165.16;2393251;28;45542;-76
2022/06/11 07:27:08;;;;;;;;;9.00;9.00;;;;;21.33;61.73;102161.44;2394755;28;45708;-75
2022/06/11 07:28:25;;;;;;;;;9.50;9.00;;;;;21.35;61.86;102163.09;2396191;28;46414;-75
2022/06/11 07:29:43;;;;;;;;;12.50;10.75;;;;;21.38;61.87;102158.50;2393903;28;45440;-76
2022/06/11 07:30:54;;;;;;;;;13.25;10.00;;;;;21.40;61.31;102159.28;2402849;28;47458;-75
2022/06/11 07:32:10;;;;;;;;;10.25;10.25;;;;;21.42;61.61;102155.56;2400514;28;45194;-75
2022/06/11 07:33:23;;;;;;;;;9.75;9.00;;;;;21.46;61.23;102167.81;2394605;28;46561;-75
2022/06/11 07:34:35;;;;;;;;;9.50;8.75;;;;;21.50;61.23;102171.19;2402814;28;44805;-75
2022/06/11 07:35:48;;;;;;;;;10.75;9.25;;;;;21.53;61.54;102165.63;2400405;28;45568;-75
2022/06/11 07:36:59;;;;;;;;;12.50;9.25;;;;;21.55;60.88;102161.09;2399121;28;45320;-75
2022/06/11 07:38:12;;;;;;;;;9.00;9.00;;;;;21.56;61.54;102159.25;2394945;28;45586;-75
2022/06/11 07:39:23;;;;;;;;;9.00;9.00;;;;;21.58;61.07;102166.25;2403873;28;44670;-76
2022/06/11 07:40:33;;;;;;;;;10.50;10.50;;;;;21.61;61.25;102165.19;2394051;28;48384;-75
2022/06/11 07:41:43;;;;;;;;;10.50;9.00;;;;;21.65;60.56;102164.09;2403013;28;45281;-75
2022/06/11 07:42:54;;;;;;;;;10.75;8.75;;;;;21.68;60.67;102165.72;2393187;28;46167;-75
2022/06/11 07:44:04;;;;;;;;;12.25;10.00;;;;;21.70;60.74;102153.13;2395752;28;45509;-76
2022/06/11 07:45:14;;;;;;;;;10.25;10.00;;;;;21.74;60.40;102160.00;2400151;28;46208;-76
2022/06/11 07:46:25;;;;;;;;;10.00;9.50;;;;;21.77;60.95;102151.81;2393051;28;44727;-76
2022/06/11 07:47:53;;;;;;;;;10.75;10.00;;;;;21.83;60.56;102155.06;2393328;28;45391;-76
2022/06/11 07:49:04;;;;;;;;;14.50;11.50;;;;;21.87;60.48;102157.50;2394468;28;45257;-76
2022/06/11 07:50:14;;;;;;;;;5.50;5.00;;;;;21.92;60.79;102154.56;2394151;28;46171;-76
2022/06/11 07:51:24;;;;;;;;;11.00;10.25;;;;;21.97;60.88;102155.16;2394408;28;45234;-75
2022/06/11 07:52:35;;;;;;;;;10.75;10.75;;;;;22.03;60.52;102164.63;2393138;28;46252;-75
2022/06/11 07:53:46;;;;;;;;;10.00;9.25;;;;;22.08;60.03;102154.50;2403056;28;44730;-75
2022/06/11 07:54:57;;;;;;;;;8.25;6.50;;;;;22.13;59.50;102159.56;2400056;28;45419;-75
2022/06/11 07:56:07;;;;;;;;;10.00;8.50;;;;;22.15;59.32;102161.19;2394229;28;45353;-75
2022/06/11 07:57:17;;;;;;;;;9.75;8.00;;;;;22.17;59.60;102160.25;2393074;28;49055;-75
2022/06/11 07:58:31;;;;;;;;;10.75;10.75;;;;;22.19;59.44;102153.00;2395008;28;45278;-75
2022/06/11 07:59:41;;;;;;;;;11.00;9.75;;;;;22.21;58.79;102161.78;2402886;28;47337;-75
2022/06/11 08:00:53;;;;;;;;;10.75;8.25;;;;;22.22;58.80;102160.84;2386865;28;45173;-75
2022/06/11 08:02:03;;;;;;;;;8.75;8.75;;;;;22.24;58.71;102161.63;2389937;28;45310;-75
2022/06/11 08:03:14;;;;;;;;;10.25;9.00;;;;;22.26;59.08;102160.56;2393552;28;45255;-75
2022/06/11 08:04:25;;;;;;;;;8.50;8.25;;;;;22.26;58.51;102165.94;2393747;28;45356;-75
2022/06/11 08:05:36;;;;;;;;;10.50;10.50;;;;;22.29;58.95;102164.00;2394342;28;44675;-75
2022/06/11 08:06:46;;;;;;;;;7.75;7.50;;;;;22.30;58.74;102160.38;2394235;28;45361;-75
2022/06/11 08:07:56;;;;;;;;;10.00;7.25;;;;;22.31;58.85;102162.09;2402582;28;45614;-75
2022/06/11 08:09:07;;;;;;;;;9.25;7.00;;;;;22.32;58.38;102163.84;2396136;28;45340;-75
2022/06/11 08:10:19;;;;;;;;;9.75;9.00;;;;;22.33;58.62;102170.88;2402619;28;45504;-75
2022/06/11 08:11:29;;;;;;;;;9.25;8.00;;;;;22.33;58.41;102168.22;2393036;28;47171;-75
2022/06/11 08:12:40;;;;;;;;;8.25;8.25;;;;;22.33;58.10;102154.81;2385568;28;45469;-75
2022/06/11 08:13:50;;;;;;;;;8.00;7.50;;;;;22.34;57.92;102162.78;2386104;28;46017;-75
2022/06/11 08:15:03;;;;;;;;;7.50;7.25;;;;;22.36;58.65;102165.34;2393184;28;45383;-75
2022/06/11 08:16:13;;;;;;;;;7.50;7.25;;;;;22.37;58.35;102159.06;2389873;28;45458;-75
2022/06/11 08:17:25;;;;;;;;;10.00;10.00;;;;;22.39;58.13;102170.53;2402372;28;45271;-75
2022/06/11 08:18:35;;;;;;;;;7.00;7.00;;;;;22.40;58.34;102161.53;2400229;28;45712;-75
2022/06/11 08:19:45;;;;;;;;;9.00;8.50;;;;;22.43;58.33;102157.81;2393863;28;45210;-75
2022/06/11 08:20:56;;;;;;;;;10.50;8.75;;;;;22.44;58.68;102155.03;2393258;28;46083;-75
2022/06/11 08:22:06;;;;;;;;;10.00;9.00;;;;;22.46;58.03;102165.66;2397762;28;44735;-75
2022/06/11 08:23:17;;;;;;;;;10.00;8.00;;;;;22.49;57.95;102168.16;2394705;28;45340;-75
2022/06/11 08:24:27;;;;;;;;;7.00;7.00;;;;;22.51;58.09;102171.59;2393768;28;45326;-75
2022/06/11 08:25:39;;;;;;;;;9.00;9.00;;;;;22.53;58.14;102166.13;2393660;28;46412;-75
2022/06/11 08:26:49;;;;;;;;;11.50;8.25;;;;;22.53;57.66;102169.69;2394141;28;45267;-75
2022/06/11 08:28:00;;;;;;;;;9.00;8.25;;;;;22.54;57.96;102168.72;2392664;28;46310;-75
2022/06/11 08:29:10;;;;;;;;;9.50;8.25;;;;;22.55;57.45;102161.53;2393760;28;45246;-75
2022/06/11 08:30:24;;;;;;;;;10.25;7.50;;;;;22.57;57.99;102170.38;2393875;28;45363;-75
2022/06/11 08:31:34;;;;;;;;;9.50;7.25;;;;;22.59;57.64;102165.75;2393142;28;45348;-75
2022/06/11 08:32:46;;;;;;;;;9.50;8.50;;;;;22.61;57.47;102158.50;2394051;28;46294;-75
2022/06/11 08:33:56;;;;;;;;;7.75;7.75;;;;;22.62;57.27;102164.72;2393134;28;45514;-75
2022/06/11 08:35:07;;;;;;;;;9.25;8.00;;;;;22.63;57.72;102163.75;2392536;28;47278;-75
2022/06/11 08:36:18;;;;;;;;;5.75;5.75;;;;;22.63;57.35;102163.75;2392188;28;45447;-74
2022/06/11 08:37:28;;;;;;;;;10.25;8.00;;;;;22.65;57.25;102164.50;2393252;28;45462;-75
2022/06/11 08:38:39;;;;;;;;;9.50;8.50;;;;;22.65;57.31;102162.69;2399545;28;45555;-75
2022/06/11 08:39:49;;;;;;;;;9.75;8.50;;;;;22.70;57.02;102157.06;2384957;28;47008;-75
2022/06/11 08:40:59;;;;;;;;;9.50;9.50;;;;;22.70;56.82;102159.75;2392347;28;45497;-75
2022/06/11 08:42:30;;;;;;;;;8.25;7.50;;;;;22.70;57.16;102163.31;2393193;28;46346;-75
2022/06/11 08:43:48;;;;;;;;;8.00;8.00;;;;;22.70;57.76;102160.63;2399966;28;45456;-76
2022/06/11 08:45:04;;;;;;;;;8.00;8.00;;;;;22.71;57.49;102158.81;2398387;28;46544;-75
2022/06/11 08:46:18;;;;;;;;;10.25;8.50;;;;;22.75;57.48;102164.81;2388794;28;45313;-75
2022/06/11 08:47:39;;;;;;;;;8.75;8.00;;;;;22.75;56.93;102154.09;2391983;28;45506;-75
2022/06/11 08:49:09;;;;;;;;;11.25;10.00;;;;;22.72;56.38;102160.50;2389521;28;45458;-75
2022/06/11 08:50:27;;;;;;;;;9.00;6.50;;;;;22.69;56.77;102158.06;2393408;28;45523;-77
2022/06/11 08:51:52;;;;;;;;;5.75;5.50;;;;;22.68;56.76;102151.78;2393957;28;44673;-78
2022/06/11 08:53:05;;;;;;;;;9.75;8.50;;;;;22.70;57.10;102157.06;2393796;28;46453;-75
2022/06/11 08:54:23;;;;;;;;;8.75;8.75;;;;;22.69;56.82;102158.06;2394009;28;45332;-75
2022/06/11 08:55:37;;;;;;;;;9.25;8.50;;;;;22.68;57.23;102154.47;2400195;28;47104;-75
2022/06/11 08:57:03;;;;;;;;;7.00;7.00;;;;;22.69;57.15;102150.84;2397797;28;45371;-75
2022/06/11 08:58:23;;;;;;;;;12.50;11.00;;;;;22.69;56.82;102147.34;2392663;28;48066;-75
2022/06/11 08:59:40;;;;;;;;;8.00;8.00;;;;;22.71;57.20;102153.44;2393305;28;45251;-75
2022/06/11 09:01:21;;;;;;;;;7.50;7.50;;;;;22.73;56.53;102156.88;2393227;28;45570;-75
2022/06/11 09:02:34;;;;;;;;;5.25;4.25;;;;;22.75;57.24;102149.59;2396071;28;45376;-76
2022/06/11 09:03:45;;;;;;;;;6.75;6.75;;;;;22.76;57.10;102148.66;2398440;28;45796;-75
2022/06/11 09:04:58;;;;;;;;;9.00;7.50;;;;;22.76;56.63;102151.34;2393662;28;47151;-75
2022/06/11 09:06:14;;;;;;;;;8.50;8.25;;;;;22.77;56.45;102141.47;2389456;28;46326;-76
2022/06/11 09:07:50;;;;;;;;;8.00;8.00;;;;;22.80;57.06;102157.34;2397961;28;45428;-75
2022/06/11 09:09:08;;;;;;;;;8.00;8.00;;;;;22.80;56.57;102142.16;2393460;28;45795;-75
2022/06/11 09:10:40;;;;;;;;;7.75;7.75;;;;;22.82;56.32;102144.72;2391706;28;45218;-76
2022/06/11 09:12:08;;;;;;;;;15.25;13.00;;;;;22.79;56.31;102148.44;2390823;28;46197;-75
2022/06/11 09:13:21;;;;;;;;;6.75;6.75;;;;;22.79;55.92;102139.56;2392504;28;45317;-76
2022/06/11 09:14:46;;;;;;;;;7.25;7.25;;;;;22.79;56.26;102139.56;2393415;28;45316;-78
2022/06/11 09:16:32;;;;;;;;;7.00;6.50;;;;;22.78;56.18;102138.69;2402217;28;45366;-76
2022/06/11 09:17:45;;;;;;;;;8.25;7.00;;;;;22.82;56.12;102142.03;2368249;28;46467;-76
2022/06/11 09:18:55;;;;;;;;;10.25;7.00;;;;;22.84;56.14;102141.97;2400611;28;45226;-76
2022/06/11 09:20:30;;;;;;;;;11.75;10.50;;;;;22.86;56.30;102140.91;2401673;28;45514;-76
2022/06/11 09:22:02;;;;;;;;;6.50;6.25;;;;;22.87;56.05;102141.75;2401526;28;45170;-76
2022/06/11 09:23:13;;;;;;;;;11.00;9.25;;;;;22.86;55.90;102137.34;2396055;28;47104;-75
2022/06/11 09:24:26;;;;;;;;;6.50;6.50;;;;;22.87;56.04;102144.41;2386239;28;44753;-75
2022/06/11 09:25:45;;;;;;;;;7.75;7.75;;;;;22.88;56.13;102146.16;2386313;28;48237;-75
2022/06/11 09:27:05;;;;;;;;;9.25;8.25;;;;;22.91;55.86;102138.78;2388172;28;45277;-76
2022/06/11 09:28:35;;;;;;;;;9.50;8.25;;;;;22.95;56.46;102141.25;2393385;28;45417;-75
2022/06/11 09:30:24;;;;;;;;;6.50;6.50;;;;;22.97;56.13;102137.53;2393747;28;45171;-75
2022/06/11 09:31:55;;;;;;;;;7.75;7.00;;;;;23.00;55.48;102144.50;2393387;28;46378;-75
2022/06/11 09:33:12;;;;;;;;;6.50;6.50;;;;;23.00;55.23;102137.31;2393778;28;45432;-75
2022/06/11 09:34:35;;;;;;;;;6.75;6.75;;;;;23.02;55.54;102146.13;2393460;28;46166;-75
2022/06/11 09:36:01;;;;;;;;;8.00;8.00;;;;;23.05;55.62;102142.41;2393475;28;45284;-75
2022/06/11 09:37:27;;;;;;;;;8.00;7.50;;;;;23.07;55.31;102147.66;2393592;28;45539;-76
2022/06/11 09:39:03;;;;;;;;;5.50;5.50;;;;;23.09;55.38;102143.06;2393637;28;45337;-75
2022/06/11 09:40:39;;;;;;;;;7.25;6.50;;;;;23.12;55.69;102137.50;2393511;28;45431;-75
2022/06/11 09:42:03;;;;;;;;;10.50;7.75;;;;;23.13;55.53;102136.53;2392929;28;45396;-76
2022/06/11 09:43:16;;;;;;;;;10.00;7.75;;;;;23.19;54.91;102146.00;2392962;28;45324;-75
2022/06/11 09:44:57;;;;;;;;;7.00;7.00;;;;;23.21;54.76;102144.94;2393152;28;44834;-76
2022/06/11 09:46:14;;;;;;;;;5.00;4.75;;;;;23.22;55.20;102137.75;2393324;28;46506;-75
2022/06/11 09:47:47;;;;;;;;;9.50;7.25;;;;;23.26;55.04;102141.97;2393260;28;45273;-76
2022/06/11 09:49:34;;;;;;;;;8.50;7.75;;;;;23.28;55.21;102140.03;2393012;28;45569;-75
2022/06/11 09:50:57;;;;;;;;;7.50;7.00;;;;;23.31;54.86;102139.00;2393299;28;45202;-75
2022/06/11 09:52:20;;;;;;;;;6.00;6.00;;;;;23.32;54.25;102133.50;2393363;28;45721;-75
2022/06/11 09:53:42;;;;;;;;;5.00;5.00;;;;;23.34;54.14;102144.13;2385452;28;45305;-75
2022/06/11 09:54:54;;;;;;;;;6.75;6.75;;;;;23.35;54.20;102146.72;2402092;28;47538;-75
2022/06/11 09:56:07;;;;;;;;;7.00;7.00;;;;;23.38;54.25;102141.13;2399733;28;45296;-75
2022/06/11 09:57:17;;;;;;;;;7.00;7.00;;;;;23.39;54.60;102136.63;2393153;28;46720;-75
2022/06/11 09:58:35;;;;;;;;;9.25;7.25;;;;;23.40;54.07;102137.50;2393402;28;45300;-75
2022/06/11 09:59:51;;;;;;;;;7.75;5.75;;;;;23.43;53.38;102142.69;2393292;28;45481;-76
2022/06/11 10:01:11;;;;;;;;;6.00;5.00;;;;;23.42;53.80;102139.13;2393348;28;45265;-75
2022/06/11 10:02:37;;;;;;;;;7.75;7.75;;;;;23.44;54.49;102139.88;2393453;28;46295;-76
2022/06/11 10:03:55;;;;;;;;;8.50;6.00;;;;;23.46;54.85;102135.28;2393528;28;45366;-75
2022/06/11 10:05:15;;;;;;;;;6.00;5.50;;;;;23.49;54.08;102136.91;2392775;28;46410;-75
2022/06/11 10:06:34;;;;;;;;;6.00;6.00;;;;;23.52;54.58;102135.84;2392392;28;44787;-75
2022/06/11 10:07:51;;;;;;;;;7.00;7.00;;;;;23.56;53.88;102140.91;2396314;28;46839;-76
2022/06/11 10:09:10;;;;;;;;;8.50;8.00;;;;;23.58;53.52;102144.34;2398973;28;44653;-76
2022/06/11 10:10:32;;;;;;;;;8.25;6.50;;;;;23.59;53.58;102137.16;2393282;28;46545;-75
2022/06/11 10:11:54;;;;;;;;;8.00;8.00;;;;;23.60;53.47;102145.13;2391977;28;45652;-76
2022/06/11 10:13:20;;;;;;;;;8.25;6.50;;;;;23.61;53.38;102145.97;2393247;28;46615;-75
2022/06/11 10:14:45;;;;;;;;;7.25;6.25;;;;;23.62;52.71;102154.88;2393444;28;45160;-75
2022/06/11 10:16:01;;;;;;;;;9.50;8.00;;;;;23.62;53.43;102146.84;2392841;28;46272;-75
2022/06/11 10:17:20;;;;;;;;;7.75;6.00;;;;;23.62;53.05;102144.16;2393268;28;44785;-75
2022/06/11 10:18:34;;;;;;;;;5.50;5.50;;;;;23.62;52.66;102144.16;2392688;28;46379;-75
2022/06/11 10:20:00;;;;;;;;;7.25;7.25;;;;;23.63;52.87;102138.66;2393538;28;44620;-75
2022/06/11 10:21:16;;;;;;;;;8.00;8.00;;;;;23.65;53.12;102139.47;2393346;28;46534;-76
2022/06/11 10:22:45;;;;;;;;;11.50;8.75;;;;;23.67;53.64;102140.22;2393204;28;44759;-75
2022/06/11 10:24:05;;;;;;;;;6.00;6.00;;;;;23.68;52.47;102138.41;2393165;28;45401;-75
2022/06/11 10:25:25;;;;;;;;;8.25;8.25;;;;;23.69;52.29;102135.59;2401364;28;44699;-76
2022/06/11 10:26:47;;;;;;;;;8.75;6.25;;;;;23.68;52.34;102141.91;2403409;28;48028;-76
2022/06/11 10:28:23;;;;;;;;;6.25;6.25;;;;;23.70;52.17;102140.00;2399945;28;45463;-76
2022/06/11 10:29:50;;;;;;;;;9.75;7.75;;;;;23.72;52.06;102137.22;2394880;28;45401;-75
2022/06/11 10:31:06;;;;;;;;;7.00;7.00;;;;;23.73;51.98;102136.22;2394871;28;45265;-75
2022/06/11 10:32:27;;;;;;;;;8.00;7.25;;;;;23.74;51.40;102139.78;2394805;28;46592;-75
2022/06/11 10:33:53;;;;;;;;;6.00;6.00;;;;;23.76;52.09;102135.16;2395165;28;45332;-75
2022/06/11 10:35:19;;;;;;;;;5.00;5.00;;;;;23.78;51.22;102138.63;2394606;28;46535;-75
2022/06/11 10:36:52;;;;;;;;;7.25;7.25;;;;;23.78;51.58;102131.41;2394194;28;44663;-75
2022/06/11 10:38:22;;;;;;;;;7.75;7.25;;;;;23.85;51.51;102133.69;2393802;28;45597;-75
2022/06/11 10:39:51;;;;;;;;;7.75;6.00;;;;;23.89;52.00;102137.88;2395104;28;45151;-75
2022/06/11 10:41:05;;;;;;;;;7.75;7.00;;;;;23.90;51.81;102123.50;2394808;28;46534;-75
2022/06/11 10:42:27;;;;;;;;;6.00;5.50;;;;;23.92;51.61;102125.13;2395081;28;45211;-75
2022/06/11 10:43:56;;;;;;;;;6.25;5.50;;;;;23.97;52.15;102127.50;2403525;28;47342;-75
2022/06/11 10:45:15;;;;;;;;;6.00;6.00;;;;;23.96;51.30;102128.44;2398991;28;45349;-75
2022/06/11 10:46:25;;;;;;;;;6.75;6.75;;;;;23.95;51.74;102126.75;2394146;28;45687;-75
2022/06/11 10:47:39;;;;;;;;;7.25;6.75;;;;;23.99;51.90;102133.63;2395020;28;44636;-75
2022/06/11 10:48:50;;;;;;;;;4.50;4.50;;;;;24.00;51.83;102124.56;2394751;28;46390;-76
2022/06/11 10:50:09;;;;;;;;;8.50;6.25;;;;;24.03;51.68;102124.38;2394876;28;45178;-77
2022/06/11 10:51:29;;;;;;;;;5.00;5.00;;;;;24.06;51.63;102134.03;2394738;28;45427;-75
2022/06/11 10:52:39;;;;;;;;;6.25;6.00;;;;;24.10;51.43;102129.34;2395110;28;44683;-75
2022/06/11 10:54:06;;;;;;;;;6.50;5.75;;;;;24.12;51.10;102130.94;2394663;28;45483;-75
2022/06/11 10:55:27;;;;;;;;;5.25;5.25;;;;;24.15;51.18;102130.72;2393286;28;45264;-76
2022/06/11 10:56:47;;;;;;;;;7.50;7.25;;;;;24.17;50.47;102130.63;2393232;28;46631;-76
2022/06/11 10:58:07;;;;;;;;;7.75;6.75;;;;;24.18;50.33;102132.31;2394403;28;45415;-76
2022/06/11 10:59:39;;;;;;;;;6.50;6.00;;;;;24.24;50.80;102123.84;2389413;28;46485;-75
2022/06/11 11:00:55;;;;;;;;;6.50;5.50;;;;;24.26;50.38;102135.38;2389551;28;45274;-75
2022/06/11 11:02:26;;;;;;;;;6.00;6.00;;;;;24.31;50.62;102129.69;2386310;28;48430;-76
2022/06/11 11:03:46;;;;;;;;;7.00;6.25;;;;;24.34;50.52;102131.28;2385687;28;45251;-76
2022/06/11 11:05:08;;;;;;;;;6.75;6.00;;;;;24.37;50.70;102141.84;2394281;28;46987;-76
2022/06/11 11:06:34;;;;;;;;;6.00;6.00;;;;;24.39;50.61;102129.16;2394263;28;45342;-75
2022/06/11 11:07:58;;;;;;;;;5.50;5.50;;;;;24.41;50.10;102132.59;2393831;28;46047;-75